Cibola, Arizona
Current Conditions -  °F | °C
As of 12:52 PM on Monday 26 Jan 2015 (Local Time) from KBLH Reporting Station
Light Rain Light Rain  
Wind Chill: 57°   Ceiling: 8000
Heat Index: 57°   Visibility: 10mi
Dew Point: 47°   Wind: 7mph
Humidity: 69%   Direction: 200°SSW
Pressure: 30.14"   Gusts: NA
Location:  33.32°N, 114.67°W
Report Text: KBLH 261952Z AUTO 20006KT 10SM -RA BKN080 OVC095 14/08 A3014 RMK AO2 SLP204 P0001 T01390083
Loading
Personal Weather Stations






























Interactive Weather Map New forecast layout! Learn more

10-Day Weather Forecast

Advertisements
Track Severe Weather on mobile